Time;durP1;ratioP1;P1;durP2;ratioP2;P2;SDS_P1;SDS_P2;PMS_P1;PMS_P2;Temp;Humidity;BMP_temperature;BMP_pressure;BME280_temperature;BME280_humidity;BME280_pressure;Samples;Min_cycle;Max_cycle;Signal;HPM_P1;HPM_P2
2023/03/30 00:00:47;;;;;;;11.87;6.30;;;12.30;79.00;;;;;;5095802;28;20322;-62
2023/03/30 00:03:18;;;;;;;11.33;6.87;;;12.30;78.90;;;;;;5087593;28;20185;-62
2023/03/30 00:05:45;;;;;;;6.33;5.63;;;12.20;78.90;;;;;;5094688;28;20201;-62
2023/03/30 00:08:17;;;;;;;9.57;6.30;;;12.20;79.00;;;;;;5093726;28;20207;-63
2023/03/30 00:10:45;;;;;;;11.53;6.13;;;12.20;79.20;;;;;;5094147;28;20205;-62
2023/03/30 00:13:12;;;;;;;11.70;6.33;;;12.20;79.20;;;;;;5092870;28;20205;-62
2023/03/30 00:15:40;;;;;;;10.33;5.93;;;12.20;79.00;;;;;;5091200;28;20300;-63
2023/03/30 00:18:07;;;;;;;11.77;6.13;;;12.10;78.90;;;;;;5093025;28;20262;-62
2023/03/30 00:20:36;;;;;;;14.77;6.57;;;12.10;78.80;;;;;;5094021;28;20277;-62
2023/03/30 00:23:03;;;;;;;8.07;6.13;;;12.10;78.60;;;;;;5095619;28;20720;-63
2023/03/30 00:25:30;;;;;;;12.03;6.03;;;12.10;78.70;;;;;;5089262;28;20231;-62
2023/03/30 00:27:57;;;;;;;8.83;5.97;;;12.10;78.80;;;;;;5095108;28;20201;-63
2023/03/30 00:30:24;;;;;;;7.67;5.40;;;12.10;78.90;;;;;;5089393;28;20653;-62
2023/03/30 00:32:52;;;;;;;9.40;5.50;;;12.00;78.90;;;;;;5094278;28;20205;-62
2023/03/30 00:35:19;;;;;;;7.13;5.67;;;12.00;79.10;;;;;;5093460;28;20602;-62
2023/03/30 00:37:48;;;;;;;9.50;6.00;;;11.90;79.20;;;;;;5093867;28;20211;-63
2023/03/30 00:40:19;;;;;;;11.53;5.67;;;11.90;79.40;;;;;;5091994;28;20680;-63
2023/03/30 00:42:47;;;;;;;10.67;6.03;;;11.90;79.50;;;;;;5092752;28;20209;-63
2023/03/30 00:45:26;;;;;;;10.80;5.70;;;11.90;79.40;;;;;;5090453;28;20263;-62
2023/03/30 00:47:58;;;;;;;8.90;5.63;;;11.90;79.50;;;;;;5093369;28;20224;-62
2023/03/30 00:50:35;;;;;;;8.10;5.27;;;11.90;79.30;;;;;;5086098;28;20212;-62
2023/03/30 00:53:09;;;;;;;9.97;5.40;;;11.80;79.30;;;;;;5096068;28;20229;-62
2023/03/30 00:55:40;;;;;;;10.20;5.37;;;11.80;79.40;;;;;;5094858;28;20204;-62
2023/03/30 00:58:10;;;;;;;8.63;5.60;;;11.80;79.50;;;;;;5092861;28;20209;-62
2023/03/30 01:00:38;;;;;;;9.37;5.53;;;11.80;79.80;;;;;;5089456;28;20254;-62
2023/03/30 01:03:34;;;;;;;9.43;5.47;;;11.70;80.60;;;;;;5091256;28;20205;-62
2023/03/30 01:06:06;;;;;;;6.43;5.30;;;11.70;80.90;;;;;;5094001;28;20546;-63
2023/03/30 01:08:36;;;;;;;13.23;6.97;;;11.70;80.40;;;;;;5090282;28;20200;-62
2023/03/30 01:11:05;;;;;;;10.57;6.80;;;11.70;80.60;;;;;;5094087;28;20205;-62
2023/03/30 01:13:35;;;;;;;11.07;6.00;;;11.60;80.60;;;;;;5108667;28;20700;-62
2023/03/30 01:16:34;;;;;;;10.53;5.73;;;11.60;80.60;;;;;;5093814;28;20215;-62
2023/03/30 01:19:02;;;;;;;10.00;6.47;;;11.60;80.50;;;;;;5103785;28;20229;-63
2023/03/30 01:21:47;;;;;;;9.60;6.83;;;11.60;80.40;;;;;;5092606;28;20720;-63
2023/03/30 01:24:33;;;;;;;8.43;6.93;;;11.50;80.40;;;;;;5091978;28;20518;-62
2023/03/30 01:27:45;;;;;;;7.97;5.97;;;11.50;80.70;;;;;;5091868;28;20224;-62
2023/03/30 01:30:42;;;;;;;10.37;5.70;;;11.50;80.90;;;;;;5091155;28;20198;-62
2023/03/30 01:33:40;;;;;;;9.43;6.03;;;11.50;81.10;;;;;;5088076;28;20549;-63
2023/03/30 01:36:34;;;;;;;8.53;6.00;;;11.50;81.40;;;;;;5091796;28;20207;-62
2023/03/30 01:39:22;;;;;;;7.17;4.83;;;11.50;81.30;;;;;;5089905;28;20202;-63
2023/03/30 01:41:55;;;;;;;6.97;5.23;;;11.50;81.00;;;;;;5092744;28;20233;-63
2023/03/30 01:44:33;;;;;;;11.13;5.93;;;11.50;80.80;;;;;;5094463;28;20198;-62
2023/03/30 01:47:11;;;;;;;9.57;5.27;;;11.50;80.90;;;;;;5093268;28;20203;-62
2023/03/30 01:49:48;;;;;;;8.03;6.03;;;11.40;81.10;;;;;;5089580;28;20291;-62
2023/03/30 01:52:22;;;;;;;8.10;5.13;;;11.40;81.40;;;;;;5092790;28;20655;-63
2023/03/30 01:55:07;;;;;;;11.53;6.13;;;11.40;81.70;;;;;;5087591;28;20197;-62
2023/03/30 01:57:50;;;;;;;8.47;5.17;;;11.50;82.00;;;;;;5078935;28;20641;-62
2023/03/30 02:00:21;;;;;;;10.47;6.00;;;11.40;82.20;;;;;;5089553;28;20210;-62
2023/03/30 02:02:54;;;;;;;9.53;5.43;;;11.40;82.20;;;;;;5084978;28;20216;-62
2023/03/30 02:05:23;;;;;;;10.70;6.10;;;11.40;82.10;;;;;;5088717;28;20216;-64
2023/03/30 02:08:00;;;;;;;9.10;5.53;;;11.40;82.00;;;;;;5083878;28;20218;-62
2023/03/30 02:10:31;;;;;;;8.87;5.83;;;11.30;82.10;;;;;;5092119;28;20214;-62
2023/03/30 02:12:59;;;;;;;11.30;7.00;;;11.30;82.30;;;;;;5088504;28;20208;-62
2023/03/30 02:15:35;;;;;;;8.80;6.10;;;11.30;82.50;;;;;;5092025;28;20229;-63
2023/03/30 02:18:03;;;;;;;12.70;6.33;;;11.30;82.60;;;;;;5100835;28;20297;-63
2023/03/30 02:20:32;;;;;;;10.23;6.23;;;11.30;83.30;;;;;;5091769;28;20633;-62
2023/03/30 02:23:00;;;;;;;10.50;6.47;;;11.30;82.70;;;;;;5090812;28;20192;-62
2023/03/30 02:25:27;;;;;;;10.40;5.83;;;11.30;82.70;;;;;;5092443;28;20478;-63
2023/03/30 02:27:55;;;;;;;8.10;6.07;;;11.30;82.80;;;;;;5090360;28;20255;-62
2023/03/30 02:30:22;;;;;;;15.03;6.67;;;11.30;83.00;;;;;;5093022;28;20382;-62
2023/03/30 02:32:53;;;;;;;11.73;7.00;;;11.30;83.10;;;;;;5092484;28;20262;-63
2023/03/30 02:35:35;;;;;;;9.57;6.73;;;11.30;83.00;;;;;;5090169;28;20265;-63
2023/03/30 02:38:39;;;;;;;9.77;6.17;;;11.30;83.00;;;;;;5103752;28;20300;-62
2023/03/30 02:41:22;;;;;;;9.37;7.07;;;11.30;83.20;;;;;;5091897;28;20231;-62
2023/03/30 02:44:24;;;;;;;7.87;6.50;;;11.30;83.40;;;;;;5091543;28;20199;-62
2023/03/30 02:47:06;;;;;;;17.47;7.00;;;11.30;83.60;;;;;;5067557;28;20334;-62
2023/03/30 02:49:55;;;;;;;9.87;6.77;;;11.20;83.40;;;;;;5056663;28;20206;-62
2023/03/30 02:52:52;;;;;;;6.37;5.50;;;11.20;83.40;;;;;;5045138;28;20292;-62
2023/03/30 02:55:44;;;;;;;10.83;5.90;;;11.20;83.40;;;;;;5050024;28;20271;-63
2023/03/30 02:58:50;;;;;;;8.13;5.97;;;11.10;83.70;;;;;;5064837;28;20283;-62
2023/03/30 03:01:27;;;;;;;13.67;6.80;;;11.10;84.10;;;;;;5053162;28;20241;-62
2023/03/30 03:04:03;;;;;;;9.70;6.17;;;11.00;84.20;;;;;;5047355;28;20232;-62
2023/03/30 03:06:38;;;;;;;9.67;6.97;;;11.00;84.40;;;;;;5055809;28;20209;-63
2023/03/30 03:09:07;;;;;;;8.40;5.73;;;11.00;84.70;;;;;;5050832;28;20213;-62
2023/03/30 03:11:35;;;;;;;12.63;6.10;;;11.00;84.60;;;;;;5055437;28;20217;-62
2023/03/30 03:14:02;;;;;;;12.87;6.23;;;11.00;84.20;;;;;;5055965;28;20524;-63
2023/03/30 03:16:32;;;;;;;11.67;6.73;;;11.00;84.30;;;;;;5052404;28;20203;-62
2023/03/30 03:19:17;;;;;;;8.83;6.40;;;10.90;84.50;;;;;;5068038;28;20197;-62
2023/03/30 03:21:47;;;;;;;16.70;7.77;;;10.90;84.80;;;;;;5065357;28;20231;-62
2023/03/30 03:24:17;;;;;;;10.43;6.93;;;10.90;85.00;;;;;;5055013;28;20210;-63
2023/03/30 03:27:10;;;;;;;8.90;6.13;;;10.90;84.90;;;;;;5056534;28;20276;-63
2023/03/30 03:29:57;;;;;;;10.67;6.40;;;10.90;84.90;;;;;;5055192;28;20229;-62
2023/03/30 03:32:24;;;;;;;8.73;6.60;;;10.90;85.10;;;;;;5048097;28;20247;-62
2023/03/30 03:34:53;;;;;;;11.70;7.13;;;10.90;85.30;;;;;;5053511;28;20337;-62
2023/03/30 03:37:20;;;;;;;9.13;6.63;;;10.90;85.40;;;;;;5053857;28;20219;-63
2023/03/30 03:39:47;;;;;;;15.03;7.07;;;10.90;85.20;;;;;;5050157;28;20298;-62
2023/03/30 03:42:15;;;;;;;10.23;6.80;;;10.90;85.30;;;;;;5054658;28;20225;-63
2023/03/30 03:44:57;;;;;;;10.00;7.10;;;10.90;85.50;;;;;;5062660;28;20308;-63
2023/03/30 03:47:24;;;;;;;12.47;6.83;;;10.80;85.60;;;;;;5084968;28;20205;-62
2023/03/30 03:49:51;;;;;;;13.00;7.23;;;10.90;85.90;;;;;;5095511;28;20197;-64
2023/03/30 03:52:18;;;;;;;14.00;7.67;;;10.90;86.00;;;;;;5082984;28;20261;-65
2023/03/30 03:54:45;;;;;;;15.17;8.13;;;10.90;86.00;;;;;;5103607;28;20311;-62
2023/03/30 03:57:12;;;;;;;12.67;8.07;;;10.90;85.70;;;;;;5093152;28;20214;-63
2023/03/30 03:59:39;;;;;;;18.00;7.70;;;10.90;85.50;;;;;;5083560;28;20306;-62
2023/03/30 04:02:06;;;;;;;10.03;7.50;;;10.90;85.50;;;;;;5093096;28;20335;-62
2023/03/30 04:04:33;;;;;;;12.87;8.13;;;10.90;85.40;;;;;;5092822;28;20204;-63
2023/03/30 04:07:00;;;;;;;10.27;7.67;;;11.00;85.50;;;;;;5095757;28;20217;-62
2023/03/30 04:09:28;;;;;;;18.37;8.27;;;10.90;85.40;;;;;;5090331;28;20189;-65
2023/03/30 04:12:01;;;;;;;11.67;7.90;;;10.90;85.60;;;;;;5092656;28;20307;-62
2023/03/30 04:14:55;;;;;;;15.77;8.60;;;10.90;85.90;;;;;;5092226;28;20235;-62
2023/03/30 04:17:27;;;;;;;11.13;8.00;;;10.90;86.00;;;;;;5092182;28;20257;-64
2023/03/30 04:20:15;;;;;;;16.30;6.83;;;11.00;86.10;;;;;;5087995;28;20220;-63
2023/03/30 04:23:01;;;;;;;15.83;8.70;;;11.00;86.30;;;;;;5090651;28;20210;-62
2023/03/30 04:25:31;;;;;;;12.47;7.43;;;11.00;86.30;;;;;;5093013;28;20691;-62
2023/03/30 04:28:30;;;;;;;11.43;8.73;;;11.00;86.20;;;;;;5093825;28;20218;-62
2023/03/30 04:31:17;;;;;;;11.87;7.80;;;10.90;85.90;;;;;;5090835;28;20193;-62
2023/03/30 04:34:03;;;;;;;13.20;8.23;;;10.90;86.10;;;;;;5094687;28;20664;-62
2023/03/30 04:36:53;;;;;;;11.37;8.03;;;10.90;86.40;;;;;;5087311;28;20216;-62
2023/03/30 04:39:20;;;;;;;16.97;8.73;;;10.90;86.60;;;;;;5091862;28;20497;-62
2023/03/30 04:42:05;;;;;;;19.10;9.50;;;10.90;86.80;;;;;;5085876;28;20224;-62
2023/03/30 04:44:45;;;;;;;16.70;8.23;;;10.90;86.90;;;;;;5091460;28;20203;-62
2023/03/30 04:47:27;;;;;;;14.53;9.63;;;10.90;86.80;;;;;;5089759;28;20224;-62
2023/03/30 04:50:12;;;;;;;12.53;8.43;;;10.90;86.60;;;;;;5091718;28;20296;-62
2023/03/30 04:52:58;;;;;;;13.73;9.20;;;10.90;86.60;;;;;;5092953;28;20211;-62
2023/03/30 04:55:57;;;;;;;13.07;8.33;;;10.90;86.60;;;;;;5078458;28;20205;-63
2023/03/30 04:59:03;;;;;;;14.00;9.40;;;10.90;86.60;;;;;;5072004;28;20229;-62
2023/03/30 05:01:44;;;;;;;14.87;9.83;;;10.90;86.90;;;;;;5070938;28;20219;-62
2023/03/30 05:04:38;;;;;;;16.43;10.20;;;10.90;87.10;;;;;;5087985;28;20244;-62
2023/03/30 05:07:31;;;;;;;13.57;10.27;;;10.90;87.20;;;;;;5070999;28;20207;-63
2023/03/30 05:10:16;;;;;;;12.47;9.73;;;10.90;87.40;;;;;;5093380;28;20266;-62
2023/03/30 05:12:56;;;;;;;20.20;11.93;;;10.90;87.50;;;;;;5089420;28;20214;-62
2023/03/30 05:15:58;;;;;;;19.50;9.50;;;10.90;87.70;;;;;;5059564;28;20204;-62
2023/03/30 05:18:25;;;;;;;16.53;10.47;;;10.90;87.70;;;;;;5081703;28;20212;-62
2023/03/30 05:20:57;;;;;;;19.93;11.33;;;10.90;87.80;;;;;;5092405;28;20196;-62
2023/03/30 05:23:25;;;;;;;15.03;9.67;;;11.00;87.90;;;;;;5090909;28;20186;-62
2023/03/30 05:26:10;;;;;;;13.73;9.47;;;11.00;87.90;;;;;;5089496;28;20562;-63
2023/03/30 05:28:51;;;;;;;18.73;9.27;;;11.00;87.80;;;;;;5088760;28;20213;-63
2023/03/30 05:31:18;;;;;;;18.97;10.03;;;11.00;87.90;;;;;;5091508;28;20216;-62
2023/03/30 05:34:14;;;;;;;12.80;9.50;;;11.00;88.10;;;;;;5110834;28;20206;-62
2023/03/30 05:36:52;;;;;;;12.47;9.17;;;11.00;88.30;;;;;;5109156;28;20207;-62
2023/03/30 05:39:34;;;;;;;12.33;9.83;;;11.10;88.40;;;;;;5092984;28;20213;-63
2023/03/30 05:42:01;;;;;;;12.17;9.27;;;11.10;88.50;;;;;;5092376;28;20232;-62
2023/03/30 05:45:00;;;;;;;10.50;8.53;;;11.20;88.70;;;;;;5072537;28;20228;-62
2023/03/30 05:47:45;;;;;;;14.20;9.70;;;11.20;88.70;;;;;;5092570;28;20202;-62
2023/03/30 05:50:33;;;;;;;12.07;9.07;;;11.20;88.80;;;;;;5090839;28;20215;-62
2023/03/30 05:53:05;;;;;;;15.17;10.20;;;11.20;88.90;;;;;;5090158;28;20208;-62
2023/03/30 05:56:01;;;;;;;15.67;9.50;;;11.30;89.00;;;;;;5082713;28;20204;-62
2023/03/30 05:58:37;;;;;;;12.33;9.43;;;11.30;89.00;;;;;;5092157;28;20223;-63
2023/03/30 06:01:25;;;;;;;13.97;8.83;;;11.40;89.10;;;;;;5086782;28;20343;-63
2023/03/30 06:03:52;;;;;;;19.37;9.87;;;11.40;89.00;;;;;;5091991;28;20664;-62
2023/03/30 06:06:20;;;;;;;13.13;8.93;;;11.50;89.10;;;;;;5092574;28;20207;-63
2023/03/30 06:08:50;;;;;;;11.07;8.40;;;11.50;89.10;;;;;;5091263;28;20208;-63
2023/03/30 06:11:21;;;;;;;13.43;9.60;;;11.60;89.20;;;;;;5092521;28;20236;-62
2023/03/30 06:14:03;;;;;;;14.63;9.57;;;11.70;89.30;;;;;;5091693;28;20507;-62
2023/03/30 06:16:31;;;;;;;15.80;9.80;;;11.70;89.10;;;;;;5090303;28;20199;-63
2023/03/30 06:19:01;;;;;;;14.80;10.17;;;11.80;89.40;;;;;;5082016;28;20228;-63
2023/03/30 06:21:28;;;;;;;15.53;10.13;;;11.90;89.40;;;;;;5090930;28;20219;-63
2023/03/30 06:24:19;;;;;;;16.70;10.17;;;12.00;89.30;;;;;;5086356;28;20200;-64
2023/03/30 06:26:48;;;;;;;15.33;10.23;;;12.20;88.60;;;;;;5098917;28;20203;-63
2023/03/30 06:29:15;;;;;;;16.27;10.27;;;12.20;88.20;;;;;;5086089;28;20243;-63
2023/03/30 06:31:42;;;;;;;12.67;10.30;;;12.30;88.00;;;;;;5090498;28;20537;-63
2023/03/30 06:34:36;;;;;;;15.43;11.13;;;12.40;87.60;;;;;;5088936;28;20237;-63
2023/03/30 06:37:06;;;;;;;15.93;9.47;;;12.40;87.30;;;;;;5092760;28;20286;-63
2023/03/30 06:39:36;;;;;;;16.40;9.83;;;12.50;87.20;;;;;;5093861;28;20533;-63
2023/03/30 06:42:05;;;;;;;13.40;9.73;;;12.50;87.10;;;;;;5084498;28;20263;-63
2023/03/30 06:44:58;;;;;;;13.73;9.53;;;12.60;86.90;;;;;;5085064;28;20233;-63
2023/03/30 06:47:26;;;;;;;12.93;9.60;;;12.70;87.00;;;;;;5091280;28;20492;-63
2023/03/30 06:49:54;;;;;;;11.03;9.60;;;12.80;86.80;;;;;;5089355;28;20650;-63
2023/03/30 06:52:37;;;;;;;13.83;9.60;;;12.90;86.70;;;;;;5088730;28;20205;-63
2023/03/30 06:55:05;;;;;;;16.43;10.33;;;13.00;86.00;;;;;;5092557;28;20207;-62
2023/03/30 06:57:32;;;;;;;15.03;10.70;;;13.20;85.30;;;;;;5091737;28;20254;-63
2023/03/30 07:00:05;;;;;;;18.07;10.70;;;13.20;84.40;;;;;;5089032;28;20211;-63
2023/03/30 07:02:39;;;;;;;13.80;9.77;;;13.30;84.20;;;;;;5092245;28;20226;-63
2023/03/30 07:05:23;;;;;;;15.83;9.53;;;13.30;84.20;;;;;;5080743;28;20211;-63
2023/03/30 07:08:06;;;;;;;15.83;11.10;;;13.40;84.40;;;;;;5090634;28;20205;-63
2023/03/30 07:10:36;;;;;;;11.03;9.93;;;13.50;84.50;;;;;;5091089;28;20232;-63
2023/03/30 07:13:06;;;;;;;19.40;10.73;;;13.70;84.50;;;;;;5084432;28;20228;-63
2023/03/30 07:15:34;;;;;;;19.87;10.60;;;13.80;84.50;;;;;;5089863;28;20217;-63
2023/03/30 07:18:02;;;;;;;15.77;9.77;;;13.90;84.30;;;;;;5092681;28;20233;-62
2023/03/30 07:20:29;;;;;;;15.80;10.47;;;14.00;83.80;;;;;;5081770;28;20225;-63
2023/03/30 07:23:16;;;;;;;14.33;9.37;;;14.10;83.40;;;;;;5088366;28;20256;-63
2023/03/30 07:25:45;;;;;;;12.93;10.17;;;14.30;83.20;;;;;;5075681;28;20197;-65
2023/03/30 07:28:19;;;;;;;22.77;11.47;;;14.30;82.90;;;;;;5088136;28;20209;-63
2023/03/30 07:30:46;;;;;;;15.70;10.77;;;14.40;82.80;;;;;;5083075;28;20206;-63
2023/03/30 07:33:14;;;;;;;15.03;10.80;;;14.50;82.80;;;;;;5090068;28;20201;-63
2023/03/30 07:35:45;;;;;;;17.53;10.73;;;14.60;82.10;;;;;;5085102;28;20235;-62
2023/03/30 07:38:15;;;;;;;18.97;9.97;;;14.70;81.80;;;;;;5079956;28;20200;-63
2023/03/30 07:40:48;;;;;;;15.13;10.43;;;14.80;81.80;;;;;;5082467;28;20217;-62
2023/03/30 07:43:17;;;;;;;14.60;9.10;;;14.90;81.50;;;;;;5089942;28;20216;-62
2023/03/30 07:45:44;;;;;;;17.20;11.70;;;15.10;80.20;;;;;;5092594;28;20264;-62
2023/03/30 07:48:17;;;;;;;14.90;11.07;;;15.10;80.40;;;;;;5105676;28;20667;-63
2023/03/30 07:50:44;;;;;;;16.43;9.77;;;15.30;80.30;;;;;;5094310;28;20263;-63
2023/03/30 07:53:11;;;;;;;17.17;11.50;;;15.40;79.70;;;;;;5094582;28;20208;-63
2023/03/30 07:55:40;;;;;;;12.80;10.23;;;15.40;79.50;;;;;;5110222;28;20300;-63
2023/03/30 07:58:15;;;;;;;18.60;11.20;;;15.50;78.50;;;;;;5094321;28;20205;-63
2023/03/30 08:00:43;;;;;;;13.70;10.67;;;15.60;78.30;;;;;;5094149;28;20301;-62
2023/03/30 08:03:49;;;;;;;13.93;10.57;;;15.70;78.30;;;;;;5071549;28;20209;-63
2023/03/30 08:06:16;;;;;;;16.63;11.00;;;15.80;78.20;;;;;;5063838;28;20716;-63
2023/03/30 08:08:47;;;;;;;13.43;9.73;;;16.00;77.80;;;;;;5073295;28;20207;-63
2023/03/30 08:11:15;;;;;;;17.20;11.47;;;16.20;77.00;;;;;;5079564;28;20205;-63
2023/03/30 08:13:43;;;;;;;14.50;10.70;;;16.40;77.20;;;;;;5092301;28;20198;-63
2023/03/30 08:16:10;;;;;;;17.60;11.47;;;16.60;76.10;;;;;;5094003;28;20299;-62
2023/03/30 08:18:40;;;;;;;20.73;11.90;;;16.80;75.50;;;;;;5095601;28;20287;-62
2023/03/30 08:21:07;;;;;;;15.40;11.57;;;16.90;71.90;;;;;;5089944;28;20549;-62
2023/03/30 08:23:34;;;;;;;16.93;11.23;;;17.00;72.00;;;;;;5091776;28;20299;-62
2023/03/30 08:26:02;;;;;;;14.33;11.43;;;17.10;72.60;;;;;;5088834;28;20711;-62
2023/03/30 08:28:29;;;;;;;14.23;11.57;;;17.30;72.60;;;;;;5093367;28;20227;-62
2023/03/30 08:31:03;;;;;;;15.63;11.00;;;17.50;71.50;;;;;;5086349;28;20206;-63
2023/03/30 08:33:31;;;;;;;15.07;11.20;;;17.70;71.00;;;;;;5091550;28;20192;-63
2023/03/30 08:35:58;;;;;;;14.13;11.13;;;17.80;69.90;;;;;;5095198;28;20195;-62
2023/03/30 08:38:25;;;;;;;15.10;9.97;;;18.00;69.30;;;;;;5092740;28;20227;-62
2023/03/30 08:40:52;;;;;;;12.97;8.73;;;18.00;68.00;;;;;;5093210;28;20244;-62
2023/03/30 08:43:32;;;;;;;15.17;10.73;;;18.10;68.40;;;;;;5093897;28;20310;-63
2023/03/30 08:46:01;;;;;;;18.17;12.50;;;18.10;67.20;;;;;;5093514;28;20247;-62
2023/03/30 08:48:34;;;;;;;15.83;10.80;;;18.10;68.10;;;;;;5093386;28;20192;-63
2023/03/30 08:51:26;;;;;;;21.17;11.47;;;18.00;68.60;;;;;;5092923;28;20213;-62
2023/03/30 08:54:05;;;;;;;18.20;11.50;;;18.00;68.50;;;;;;5091509;28;20224;-62
2023/03/30 08:57:16;;;;;;;20.33;11.67;;;18.00;68.70;;;;;;5093035;28;20194;-63
2023/03/30 09:00:10;;;;;;;12.17;10.73;;;18.00;68.30;;;;;;5093433;28;20215;-64
2023/03/30 09:02:45;;;;;;;12.53;10.77;;;17.90;68.10;;;;;;5093513;28;20239;-62
2023/03/30 09:05:29;;;;;;;13.23;10.30;;;17.90;69.40;;;;;;5093078;28;20286;-62
2023/03/30 09:08:20;;;;;;;18.57;10.87;;;17.90;69.90;;;;;;5090542;28;20197;-63
2023/03/30 09:11:00;;;;;;;14.50;11.17;;;18.00;69.90;;;;;;5094483;28;20646;-63
2023/03/30 09:13:32;;;;;;;15.80;12.37;;;18.00;69.60;;;;;;5088646;28;20195;-63
2023/03/30 09:16:31;;;;;;;12.10;10.80;;;18.00;70.50;;;;;;5092662;28;20204;-63
2023/03/30 09:19:00;;;;;;;16.23;11.33;;;18.10;70.50;;;;;;5086138;28;20196;-62
2023/03/30 09:21:30;;;;;;;14.43;12.20;;;18.40;70.80;;;;;;5092656;28;20287;-63
2023/03/30 09:24:09;;;;;;;15.87;11.87;;;18.60;69.70;;;;;;5092138;28;20698;-62
2023/03/30 09:27:01;;;;;;;17.00;12.07;;;18.80;69.50;;;;;;5091649;28;20198;-63
2023/03/30 09:29:33;;;;;;;18.17;12.40;;;18.90;69.40;;;;;;5085413;28;20191;-63
2023/03/30 09:32:16;;;;;;;17.10;11.93;;;18.90;70.00;;;;;;5091262;28;20292;-64
2023/03/30 09:34:55;;;;;;;26.53;12.77;;;19.00;69.50;;;;;;5091391;28;20551;-63
2023/03/30 09:37:23;;;;;;;15.57;11.13;;;19.10;68.40;;;;;;5088398;28;20201;-62
2023/03/30 09:39:50;;;;;;;20.40;11.27;;;19.10;67.50;;;;;;5092846;28;20207;-63
2023/03/30 09:42:32;;;;;;;18.57;11.30;;;19.10;68.50;;;;;;5089535;28;20518;-63
2023/03/30 09:45:24;;;;;;;17.23;12.37;;;19.10;68.80;;;;;;5092810;28;20236;-63
2023/03/30 09:47:51;;;;;;;13.80;11.53;;;19.20;69.40;;;;;;5082323;28;20257;-63
2023/03/30 09:50:27;;;;;;;14.73;12.57;;;19.30;69.30;;;;;;5093304;28;20508;-63
2023/03/30 09:52:56;;;;;;;15.33;11.17;;;19.40;69.50;;;;;;5089685;28;20213;-64
2023/03/30 09:55:27;;;;;;;16.03;11.93;;;19.60;68.50;;;;;;5089102;28;20543;-63
2023/03/30 09:58:08;;;;;;;15.77;11.60;;;19.60;67.80;;;;;;5090718;28;20204;-63
2023/03/30 10:00:36;;;;;;;21.97;10.80;;;19.80;67.40;;;;;;5085101;28;20266;-63
2023/03/30 10:03:06;;;;;;;14.37;10.70;;;19.80;65.90;;;;;;5092278;28;20303;-63
2023/03/30 10:05:35;;;;;;;22.13;13.30;;;20.00;66.10;;;;;;5089446;28;20235;-63
2023/03/30 10:08:06;;;;;;;15.73;11.70;;;20.10;66.30;;;;;;5092501;28;20602;-63
2023/03/30 10:10:39;;;;;;;17.27;12.63;;;20.20;67.20;;;;;;5090690;28;20215;-63
2023/03/30 10:13:15;;;;;;;14.90;11.27;;;20.30;67.60;;;;;;5091203;28;20232;-63
2023/03/30 10:15:45;;;;;;;15.73;10.70;;;20.30;66.00;;;;;;5092394;28;20235;-63
2023/03/30 10:18:27;;;;;;;18.40;11.50;;;20.30;65.50;;;;;;5089673;28;20212;-66
2023/03/30 10:21:05;;;;;;;14.83;11.97;;;20.40;65.60;;;;;;5091529;28;20607;-63
2023/03/30 10:23:43;;;;;;;16.57;11.57;;;20.40;65.70;;;;;;5091030;28;20672;-63
2023/03/30 10:26:19;;;;;;;12.67;9.27;;;20.40;63.80;;;;;;5107960;28;20189;-63
2023/03/30 10:29:01;;;;;;;13.60;8.53;;;20.30;64.40;;;;;;5091722;28;20220;-63
2023/03/30 10:31:30;;;;;;;12.10;7.17;;;20.20;63.80;;;;;;5090403;28;20510;-63
2023/03/30 10:34:00;;;;;;;11.27;7.30;;;20.10;64.10;;;;;;5087740;28;20207;-62
2023/03/30 10:36:37;;;;;;;11.63;7.77;;;20.10;64.30;;;;;;5090256;28;20666;-63
2023/03/30 10:39:27;;;;;;;15.10;7.73;;;20.10;64.40;;;;;;5089706;28;20278;-62
2023/03/30 10:41:56;;;;;;;10.90;7.80;;;20.30;64.40;;;;;;5091429;28;20209;-63
2023/03/30 10:44:41;;;;;;;14.13;8.37;;;20.50;63.60;;;;;;5092935;28;20200;-63
2023/03/30 10:47:14;;;;;;;14.83;8.00;;;20.70;62.30;;;;;;5090800;28;20193;-63
2023/03/30 10:49:53;;;;;;;13.53;7.63;;;20.90;61.70;;;;;;5089574;28;20634;-63
2023/03/30 10:52:33;;;;;;;13.03;6.10;;;20.90;61.60;;;;;;5088094;28;20189;-63
2023/03/30 10:55:21;;;;;;;11.70;7.03;;;21.00;61.60;;;;;;5091537;28;20204;-63
2023/03/30 10:58:13;;;;;;;11.77;6.60;;;21.00;61.50;;;;;;5089434;28;20212;-63
2023/03/30 11:00:52;;;;;;;8.60;4.40;;;20.90;59.40;;;;;;5091351;28;20209;-63
2023/03/30 11:03:28;;;;;;;7.97;5.10;;;20.80;60.30;;;;;;5093064;28;20290;-63
2023/03/30 11:06:18;;;;;;;10.13;4.50;;;20.80;59.40;;;;;;5089580;28;20216;-63
2023/03/30 11:08:48;;;;;;;7.00;3.43;;;20.80;60.30;;;;;;5087640;28;20197;-63
2023/03/30 11:11:22;;;;;;;9.73;5.70;;;20.80;59.20;;;;;;5090377;28;20280;-63
2023/03/30 11:13:53;;;;;;;7.80;5.27;;;20.80;62.80;;;;;;5089813;28;20613;-63
2023/03/30 11:16:29;;;;;;;11.90;4.10;;;20.80;61.50;;;;;;5088968;28;20257;-63
2023/03/30 11:19:03;;;;;;;7.00;4.00;;;20.80;62.00;;;;;;5094005;28;20197;-63
2023/03/30 11:22:17;;;;;;;7.63;4.97;;;20.80;60.40;;;;;;5097243;28;20262;-63
2023/03/30 11:24:49;;;;;;;5.73;5.10;;;20.80;60.40;;;;;;5053112;28;20210;-63
2023/03/30 11:27:29;;;;;;;6.30;4.47;;;21.00;62.80;;;;;;5060351;28;20271;-63
2023/03/30 11:30:08;;;;;;;8.87;3.93;;;21.10;62.70;;;;;;5081162;28;20236;-63
2023/03/30 11:32:46;;;;;;;11.13;4.13;;;21.20;61.30;;;;;;5090901;28;20205;-63
2023/03/30 11:35:38;;;;;;;7.67;4.57;;;21.30;59.90;;;;;;5082491;28;20250;-63
2023/03/30 11:38:31;;;;;;;7.53;3.27;;;21.30;59.60;;;;;;5088289;28;20660;-63
2023/03/30 11:41:18;;;;;;;6.23;3.50;;;21.50;59.60;;;;;;5109424;28;20630;-63
2023/03/30 11:43:45;;;;;;;7.80;3.53;;;21.60;59.40;;;;;;5091578;28;20208;-63
2023/03/30 11:46:19;;;;;;;7.73;3.40;;;21.70;59.00;;;;;;5093740;28;20294;-62
2023/03/30 11:49:13;;;;;;;3.80;3.10;;;21.80;58.60;;;;;;5091544;28;20198;-63
2023/03/30 11:51:46;;;;;;;4.33;2.80;;;21.90;58.40;;;;;;5093918;28;20634;-63
2023/03/30 11:54:41;;;;;;;5.90;3.20;;;22.10;57.40;;;;;;5096244;28;20231;-62
2023/03/30 11:57:33;;;;;;;5.03;2.87;;;22.20;57.40;;;;;;5093063;28;20231;-63
2023/03/30 12:00:18;;;;;;;7.30;3.13;;;22.40;56.70;;;;;;5093920;28;20193;-62
2023/03/30 12:02:45;;;;;;;8.10;3.67;;;22.50;55.80;;;;;;5089902;28;20228;-64
2023/03/30 12:05:26;;;;;;;11.40;3.70;;;22.60;56.20;;;;;;5093403;28;20193;-63
2023/03/30 12:08:19;;;;;;;6.07;3.20;;;22.60;55.30;;;;;;5092902;28;20196;-63
2023/03/30 12:11:18;;;;;;;5.93;2.87;;;22.40;56.20;;;;;;5090070;28;20568;-63
2023/03/30 12:13:45;;;;;;;5.07;2.80;;;22.40;56.70;;;;;;5092427;28;20345;-64
2023/03/30 12:16:43;;;;;;;4.43;2.57;;;22.30;55.10;;;;;;5094172;28;20201;-63
2023/03/30 12:19:24;;;;;;;6.10;2.50;;;22.20;55.60;;;;;;5092882;28;20235;-63
2023/03/30 12:21:53;;;;;;;6.27;2.47;;;22.10;56.80;;;;;;5092622;28;20202;-63
2023/03/30 12:24:40;;;;;;;5.77;2.60;;;22.00;57.20;;;;;;5094643;28;20596;-64
2023/03/30 12:27:09;;;;;;;4.60;2.57;;;22.00;57.00;;;;;;5091745;28;20276;-63
2023/03/30 12:29:46;;;;;;;4.97;2.53;;;22.00;56.40;;;;;;5094572;28;20189;-63
2023/03/30 12:32:27;;;;;;;6.50;2.57;;;22.00;56.70;;;;;;5090415;28;20524;-64
2023/03/30 12:34:56;;;;;;;4.93;2.37;;;21.90;56.30;;;;;;5105256;28;20206;-63
2023/03/30 12:37:34;;;;;;;6.47;2.63;;;22.00;56.70;;;;;;5091383;28;20201;-63
2023/03/30 12:40:09;;;;;;;5.77;2.60;;;22.10;57.30;;;;;;5093618;28;20262;-63
2023/03/30 12:42:45;;;;;;;4.77;2.67;;;22.10;56.40;;;;;;5087674;28;20212;-63
2023/03/30 12:45:27;;;;;;;5.87;2.67;;;22.10;55.40;;;;;;5095495;28;20558;-63
2023/03/30 12:48:23;;;;;;;4.50;2.57;;;22.10;56.20;;;;;;5090651;28;20197;-63
2023/03/30 12:50:56;;;;;;;5.43;2.53;;;22.20;54.90;;;;;;5090825;28;20197;-63
2023/03/30 12:53:44;;;;;;;6.10;2.37;;;22.10;54.00;;;;;;5091089;28;20205;-63
2023/03/30 12:56:19;;;;;;;8.47;3.10;;;22.10;54.10;;;;;;5094238;28;20209;-63
2023/03/30 12:59:10;;;;;;;9.57;2.90;;;22.00;54.10;;;;;;5093095;28;20204;-63
2023/03/30 13:01:46;;;;;;;5.93;2.70;;;21.80;54.10;;;;;;5092280;28;20200;-63
2023/03/30 13:04:20;;;;;;;4.30;2.63;;;21.60;54.90;;;;;;5093051;28;20232;-62
2023/03/30 13:06:55;;;;;;;6.90;2.43;;;21.50;55.40;;;;;;5091686;28;20212;-63
2023/03/30 13:09:26;;;;;;;5.07;2.33;;;21.40;56.10;;;;;;5092489;28;20202;-63
2023/03/30 13:11:52;;;;;;;6.63;2.40;;;21.30;56.40;;;;;;5091613;28;20227;-63
2023/03/30 13:14:25;;;;;;;6.87;2.30;;;21.20;56.80;;;;;;5091617;28;20650;-63
2023/03/30 13:16:52;;;;;;;5.37;2.30;;;21.20;56.40;;;;;;5091194;28;20601;-63
2023/03/30 13:19:30;;;;;;;4.07;2.40;;;21.20;56.20;;;;;;5092285;28;20280;-63
2023/03/30 13:22:18;;;;;;;5.33;2.40;;;21.30;56.30;;;;;;5093922;28;20243;-63
2023/03/30 13:24:58;;;;;;;5.30;2.50;;;21.50;56.30;;;;;;5085542;28;20213;-63
2023/03/30 13:27:29;;;;;;;5.87;2.03;;;21.70;56.00;;;;;;5091642;28;20192;-64